createdAt,value
2023-04-25T00:00:27.360Z,101383.28
2023-04-25T00:03:15.587Z,101383.63
2023-04-25T00:05:44.002Z,101389.98
2023-04-25T00:08:12.474Z,101398.27
2023-04-25T00:10:40.540Z,101394.81
2023-04-25T00:13:09.425Z,101394.91
2023-04-25T00:15:39.160Z,101399.96
2023-04-25T00:18:07.461Z,101397.89
2023-04-25T00:20:36.822Z,101395.98
2023-04-25T00:23:07.197Z,101392.27
2023-04-25T00:25:35.310Z,101386.58
2023-04-25T00:28:03.590Z,101383.86
2023-04-25T00:30:31.530Z,101383.07
2023-04-25T00:32:59.632Z,101382.98
2023-04-25T00:35:28.111Z,101384.27
2023-04-25T00:37:56.240Z,101382.47
2023-04-25T00:40:24.565Z,101385.36
2023-04-25T00:42:54.267Z,101394.77
2023-04-25T00:45:22.342Z,101392.46
2023-04-25T00:47:51.489Z,101393.38
2023-04-25T00:50:19.511Z,101393.47
2023-04-25T00:52:47.784Z,101391.98
2023-04-25T00:55:16.981Z,101396.15
2023-04-25T00:57:45.265Z,101397.70
2023-04-25T01:00:15.582Z,101394.09
2023-04-25T01:02:46.031Z,101399.11
2023-04-25T01:05:14.703Z,101401.46
2023-04-25T01:07:42.987Z,101405.98
2023-04-25T01:10:11.348Z,101404.03
2023-04-25T01:12:39.935Z,101400.73
2023-04-25T01:15:08.323Z,101396.04
2023-04-25T01:17:37.061Z,101395.08
2023-04-25T01:20:06.488Z,101398.65
2023-04-25T01:22:35.620Z,101396.52
2023-04-25T01:25:04.302Z,101403.02
2023-04-25T01:27:33.184Z,101400.48
2023-04-25T01:30:06.791Z,101398.35
2023-04-25T01:32:39.631Z,101395.52
2023-04-25T01:35:12.852Z,101392.58
2023-04-25T01:37:43.271Z,101395.84
2023-04-25T01:40:13.919Z,101391.33
2023-04-25T01:42:44.683Z,101390.48
2023-04-25T01:45:14.089Z,101393.14
2023-04-25T01:47:43.936Z,101400.15
2023-04-25T01:50:12.575Z,101401.20
2023-04-25T01:52:40.953Z,101398.35
2023-04-25T01:55:10.535Z,101402.45
2023-04-25T01:57:41.804Z,101406.99
2023-04-25T02:00:11.389Z,101413.72
2023-04-25T02:02:42.894Z,101418.14
2023-04-25T02:05:28.463Z,101421.11
2023-04-25T02:07:56.601Z,101424.75
2023-04-25T02:10:26.881Z,101422.70
2023-04-25T02:13:15.983Z,101429.02
2023-04-25T02:16:16.358Z,101429.61
2023-04-25T02:18:46.050Z,101426.64
2023-04-25T02:21:14.200Z,101429.66
2023-04-25T02:23:42.381Z,101427.45
2023-04-25T02:26:12.395Z,101427.59
2023-04-25T02:28:40.460Z,101429.86
2023-04-25T02:31:08.616Z,101432.23
2023-04-25T02:33:36.823Z,101430.67
2023-04-25T02:36:07.559Z,101431.52
2023-04-25T02:38:35.545Z,101432.20
2023-04-25T02:41:05.037Z,101436.76
2023-04-25T02:43:33.066Z,101441.73
2023-04-25T02:46:01.044Z,101444.11
2023-04-25T02:48:30.470Z,101445.08
2023-04-25T02:50:58.444Z,101446.58
2023-04-25T02:53:26.416Z,101449.61
2023-04-25T02:55:55.087Z,101444.52
2023-04-25T02:58:23.255Z,101441.52
2023-04-25T03:00:53.514Z,101440.88
2023-04-25T03:03:24.469Z,101433.90
2023-04-25T03:05:53.161Z,101438.61
2023-04-25T03:08:33.667Z,101442.11
2023-04-25T03:11:02.548Z,101440.20
2023-04-25T03:13:31.116Z,101444.29
2023-04-25T03:15:59.261Z,101448.58
2023-04-25T03:18:27.493Z,101445.31
2023-04-25T03:20:56.582Z,101440.92
2023-04-25T03:23:25.783Z,101448.05
2023-04-25T03:25:53.876Z,101452.64
2023-04-25T03:28:21.935Z,101453.34
2023-04-25T03:30:50.142Z,101459.16
2023-04-25T03:33:18.277Z,101462.05
2023-04-25T03:35:46.716Z,101467.16
2023-04-25T03:38:14.928Z,101466.77
2023-04-25T03:40:43.003Z,101460.53
2023-04-25T03:43:33.808Z,101463.45
2023-04-25T03:46:05.486Z,101467.72
2023-04-25T03:48:33.638Z,101473.60
2023-04-25T03:51:02.033Z,101478.09
2023-04-25T03:53:30.720Z,101478.77
2023-04-25T03:56:16.925Z,101477.62
2023-04-25T03:58:46.284Z,101476.44
2023-04-25T04:01:15.133Z,101476.88
2023-04-25T04:03:43.698Z,101474.70
2023-04-25T04:06:12.063Z,101483.42
2023-04-25T04:08:46.034Z,101475.42
2023-04-25T04:11:14.129Z,101482.55
2023-04-25T04:13:42.121Z,101482.31
2023-04-25T04:16:11.218Z,101485.96
2023-04-25T04:18:39.789Z,101488.45
2023-04-25T04:21:08.090Z,101495.27
2023-04-25T04:23:39.787Z,101495.98
2023-04-25T04:26:09.830Z,101501.77
2023-04-25T04:28:56.856Z,101502.32
2023-04-25T04:31:35.823Z,101498.20
2023-04-25T04:34:04.746Z,101499.77
2023-04-25T04:36:33.251Z,101504.81
2023-04-25T04:39:01.472Z,101505.09
2023-04-25T04:41:52.589Z,101497.77
2023-04-25T04:44:40.167Z,101499.22
2023-04-25T04:47:32.244Z,101497.42
2023-04-25T04:50:20.241Z,101501.01
2023-04-25T04:53:20.670Z,101500.61
2023-04-25T04:55:51.277Z,101503.61
2023-04-25T04:58:38.116Z,101502.89
2023-04-25T05:01:27.507Z,101506.04
2023-04-25T05:04:09.151Z,101508.60
2023-04-25T05:07:09.603Z,101513.16
2023-04-25T05:09:45.872Z,101516.31
2023-04-25T05:12:34.709Z,101521.02
2023-04-25T05:15:22.661Z,101532.90
2023-04-25T05:18:09.425Z,101537.52
2023-04-25T05:20:47.017Z,101536.49
2023-04-25T05:23:29.035Z,101541.91
2023-04-25T05:25:57.959Z,101545.34
2023-04-25T05:28:54.945Z,101547.11
2023-04-25T05:31:43.804Z,101551.55
2023-04-25T05:34:15.518Z,101550.66
2023-04-25T05:36:53.014Z,101550.92
2023-04-25T05:39:21.813Z,101552.92
2023-04-25T05:42:09.269Z,101556.95
2023-04-25T05:44:55.836Z,101565.38
2023-04-25T05:47:43.814Z,101573.38
2023-04-25T05:50:26.381Z,101579.35
2023-04-25T05:53:03.672Z,101577.57
2023-04-25T05:55:34.099Z,101581.24
2023-04-25T05:58:11.895Z,101585.23
2023-04-25T06:00:42.666Z,101584.23
2023-04-25T06:03:11.172Z,101585.33
2023-04-25T06:05:39.641Z,101588.92
2023-04-25T06:08:07.662Z,101589.27
2023-04-25T06:10:35.813Z,101585.48
2023-04-25T06:13:05.436Z,101594.45
2023-04-25T06:15:35.218Z,101595.21
2023-04-25T06:18:03.547Z,101599.67
2023-04-25T06:20:31.797Z,101606.67
2023-04-25T06:23:01.116Z,101605.77
2023-04-25T06:25:46.484Z,101608.50
2023-04-25T06:28:14.671Z,101607.30
2023-04-25T06:30:44.205Z,101607.81
2023-04-25T06:33:15.769Z,101609.02
2023-04-25T06:35:44.003Z,101611.50
2023-04-25T06:38:14.135Z,101610.39
2023-04-25T06:40:45.063Z,101609.39
2023-04-25T06:43:13.943Z,101610.58
2023-04-25T06:46:01.581Z,101613.97
2023-04-25T06:48:31.077Z,101616.30
2023-04-25T06:50:59.931Z,101622.51
2023-04-25T06:53:28.144Z,101629.73
2023-04-25T06:56:00.005Z,101632.84
2023-04-25T06:58:36.384Z,101636.23
2023-04-25T07:01:15.399Z,101640.48
2023-04-25T07:03:43.789Z,101639.67
2023-04-25T07:06:16.152Z,101641.14
2023-04-25T07:08:44.583Z,101641.95
2023-04-25T07:11:12.676Z,101642.56
2023-04-25T07:13:41.494Z,101641.95
2023-04-25T07:16:10.013Z,101641.89
2023-04-25T07:18:38.354Z,101640.89
2023-04-25T07:21:06.700Z,101638.66
2023-04-25T07:23:35.172Z,101644.09
2023-04-25T07:26:07.133Z,101641.63
2023-04-25T07:28:35.844Z,101642.86
2023-04-25T07:31:04.098Z,101641.46
2023-04-25T07:33:35.088Z,101637.80
2023-04-25T07:36:03.913Z,101640.14
2023-04-25T07:38:32.089Z,101643.15
2023-04-25T07:41:00.420Z,101646.90
2023-04-25T07:43:28.498Z,101650.11
2023-04-25T07:45:59.853Z,101646.12
2023-04-25T07:48:29.243Z,101638.77
2023-04-25T07:50:58.035Z,101633.34
2023-04-25T07:53:24.975Z,101640.73
2023-04-25T07:55:56.225Z,101639.15
2023-04-25T07:58:24.626Z,101648.98
2023-04-25T08:00:56.489Z,101648.94
2023-04-25T08:03:45.095Z,101660.05
2023-04-25T08:06:18.497Z,101667.94
2023-04-25T08:08:53.065Z,101669.42
2023-04-25T08:11:22.544Z,101670.13
2023-04-25T08:13:51.229Z,101667.53
2023-04-25T08:16:19.569Z,101669.84
2023-04-25T08:18:47.911Z,101674.08
2023-04-25T08:21:16.471Z,101672.29
2023-04-25T08:23:45.562Z,101672.77
2023-04-25T08:26:17.493Z,101679.38
2023-04-25T08:28:45.416Z,101676.27
2023-04-25T08:31:13.407Z,101672.04
2023-04-25T08:33:50.644Z,101665.25
2023-04-25T08:36:38.546Z,101677.00
2023-04-25T08:39:15.566Z,101685.20
2023-04-25T08:41:51.489Z,101689.93
2023-04-25T08:44:21.965Z,101695.42
2023-04-25T08:46:51.316Z,101702.70
2023-04-25T08:49:28.530Z,101704.23
2023-04-25T08:52:00.506Z,101706.13
2023-04-25T08:54:35.698Z,101715.75
2023-04-25T08:57:06.989Z,101717.35
2023-04-25T08:59:37.856Z,101719.70
2023-04-25T09:02:07.499Z,101720.20
2023-04-25T09:04:36.231Z,101717.50
2023-04-25T09:07:04.700Z,101709.45
2023-04-25T09:09:32.967Z,101710.05
2023-04-25T09:12:02.704Z,101720.03
2023-04-25T09:14:30.979Z,101730.80
2023-04-25T09:17:12.821Z,101725.96
2023-04-25T09:19:45.529Z,101726.30
2023-04-25T09:22:24.469Z,101733.36
2023-04-25T09:24:52.455Z,101730.44
2023-04-25T09:27:28.181Z,101731.85
2023-04-25T09:30:17.458Z,101729.70
2023-04-25T09:33:10.601Z,101724.64
2023-04-25T09:35:41.180Z,101723.61
2023-04-25T09:38:12.482Z,101723.45
2023-04-25T09:41:07.073Z,101717.59
2023-04-25T09:43:40.442Z,101717.29
2023-04-25T09:46:12.928Z,101712.90
2023-04-25T09:48:52.182Z,101705.56
2023-04-25T09:51:28.898Z,101706.89
2023-04-25T09:53:59.996Z,101712.58
2023-04-25T09:57:00.431Z,101715.89
2023-04-25T09:59:32.644Z,101712.92
2023-04-25T10:02:00.782Z,101716.11
2023-04-25T10:04:34.016Z,101713.56
2023-04-25T10:07:20.067Z,101714.06
2023-04-25T10:09:52.940Z,101712.70
2023-04-25T10:12:21.129Z,101710.95
2023-04-25T10:14:49.295Z,101710.23
2023-04-25T10:17:18.836Z,101716.67
2023-04-25T10:19:50.862Z,101720.59
2023-04-25T10:22:27.224Z,101715.27
2023-04-25T10:24:57.665Z,101717.81
2023-04-25T10:27:29.119Z,101722.30
2023-04-25T10:30:13.760Z,101719.92
2023-04-25T10:32:46.690Z,101724.84
2023-04-25T10:35:20.191Z,101727.41
2023-04-25T10:38:18.025Z,101728.19
2023-04-25T10:41:09.321Z,101723.25
2023-04-25T10:43:39.730Z,101722.95
2023-04-25T10:46:35.890Z,101726.32
2023-04-25T10:49:04.990Z,101731.28
2023-04-25T10:54:23.550Z,101729.19
2023-04-25T10:56:52.447Z,101728.27
2023-04-25T10:59:21.621Z,101718.49
2023-04-25T11:01:54.211Z,101723.75
2023-04-25T11:04:32.032Z,101726.20
2023-04-25T11:07:14.803Z,101725.95
2023-04-25T11:09:42.922Z,101720.02
2023-04-25T11:15:05.708Z,101714.96
2023-04-25T11:17:34.354Z,101714.77
2023-04-25T11:20:07.638Z,101717.27
2023-04-25T11:22:36.036Z,101717.61
2023-04-25T11:25:08.559Z,101713.68
2023-04-25T11:27:59.420Z,101715.64
2023-04-25T11:30:28.233Z,101715.88
2023-04-25T11:32:56.482Z,101714.06
2023-04-25T11:35:26.872Z,101717.95
2023-04-25T11:37:54.967Z,101717.02
2023-04-25T11:40:23.057Z,101716.77
2023-04-25T11:42:54.969Z,101719.72
2023-04-25T11:45:24.935Z,101715.77
2023-04-25T11:47:53.193Z,101716.99
2023-04-25T11:50:21.384Z,101721.59
2023-04-25T11:52:51.467Z,101722.31
2023-04-25T11:55:21.680Z,101722.35
2023-04-25T11:57:54.092Z,101711.86
2023-04-25T12:00:23.612Z,101710.83
2023-04-25T12:02:56.140Z,101711.71
2023-04-25T12:05:33.167Z,101709.91
2023-04-25T12:08:13.170Z,101712.73
2023-04-25T12:10:42.960Z,101714.65
2023-04-25T12:13:25.742Z,101712.52
2023-04-25T12:15:56.652Z,101713.73
2023-04-25T12:18:29.142Z,101715.83
2023-04-25T12:20:57.432Z,101713.29
2023-04-25T12:23:29.690Z,101718.99
2023-04-25T12:25:58.805Z,101718.09
2023-04-25T12:28:29.732Z,101721.26
2023-04-25T12:31:03.199Z,101722.30
2023-04-25T12:33:33.522Z,101724.41
2023-04-25T12:36:09.664Z,101723.69
2023-04-25T12:38:43.031Z,101723.41
2023-04-25T12:41:11.169Z,101716.23
2023-04-25T12:43:39.769Z,101716.98
2023-04-25T12:46:08.402Z,101714.39
2023-04-25T12:48:36.729Z,101711.27
2023-04-25T12:51:04.813Z,101708.98
2023-04-25T12:53:33.930Z,101710.59
2023-04-25T12:56:03.838Z,101707.96
2023-04-25T12:58:31.987Z,101714.40
2023-04-25T13:01:00.196Z,101712.27
2023-04-25T13:03:28.402Z,101710.67
2023-04-25T13:05:56.963Z,101701.80
2023-04-25T13:08:25.195Z,101701.64
2023-04-25T13:10:53.274Z,101699.87
2023-04-25T13:13:21.437Z,101699.14
2023-04-25T13:15:49.611Z,101696.81
2023-04-25T13:18:17.814Z,101692.73
2023-04-25T13:20:47.288Z,101693.63
2023-04-25T13:23:15.484Z,101690.23
2023-04-25T13:25:43.646Z,101689.58
2023-04-25T13:28:11.924Z,101687.45
2023-04-25T13:30:40.499Z,101682.64
2023-04-25T13:33:08.441Z,101678.90
2023-04-25T13:35:38.586Z,101677.29
2023-04-25T13:38:06.709Z,101676.06
2023-04-25T13:40:35.243Z,101672.34
2023-04-25T13:43:03.422Z,101670.56
2023-04-25T13:45:33.434Z,101671.46
2023-04-25T13:48:02.061Z,101670.21
2023-04-25T13:50:31.316Z,101664.66
2023-04-25T13:52:59.403Z,101669.66
2023-04-25T13:55:27.544Z,101666.29
2023-04-25T13:57:55.770Z,101663.24
2023-04-25T14:00:24.181Z,101663.42
2023-04-25T14:02:52.372Z,101663.60
2023-04-25T14:05:20.668Z,101658.95
2023-04-25T14:07:48.662Z,101654.68
2023-04-25T14:10:16.685Z,101653.61
2023-04-25T14:12:44.615Z,101653.79
2023-04-25T14:15:12.653Z,101659.66
2023-04-25T14:17:41.262Z,101650.73
2023-04-25T14:20:11.989Z,101657.17
2023-04-25T14:22:44.859Z,101653.07
2023-04-25T14:25:13.135Z,101653.79
2023-04-25T14:27:41.176Z,101652.16
2023-04-25T14:30:10.580Z,101656.63
2023-04-25T14:32:39.208Z,101650.75
2023-04-25T14:35:08.267Z,101649.48
2023-04-25T14:37:36.364Z,101646.63
2023-04-25T14:40:05.695Z,101644.12
2023-04-25T14:42:35.281Z,101645.02
2023-04-25T14:45:05.508Z,101648.95
2023-04-25T14:47:33.587Z,101647.52
2023-04-25T14:50:02.848Z,101653.95
2023-04-25T14:52:31.951Z,101658.60
2023-04-25T14:55:06.096Z,101654.84
2023-04-25T14:57:35.675Z,101650.58
2023-04-25T15:00:06.450Z,101641.84
2023-04-25T15:02:34.539Z,101636.29
2023-04-25T15:05:03.140Z,101639.86
2023-04-25T15:07:31.674Z,101639.68
2023-04-25T15:09:59.664Z,101645.40
2023-04-25T15:12:29.400Z,101642.91
2023-04-25T15:14:57.500Z,101646.29
2023-04-25T15:17:25.579Z,101648.79
2023-04-25T15:19:55.703Z,101645.56
2023-04-25T15:22:23.790Z,101642.54
2023-04-25T15:24:51.832Z,101639.31
2023-04-25T15:27:19.778Z,101639.32
2023-04-25T15:29:47.757Z,101640.02
2023-04-25T15:32:16.226Z,101641.98
2023-04-25T15:34:44.403Z,101640.58
2023-04-25T15:37:12.493Z,101634.67
2023-04-25T15:39:40.571Z,101630.93
2023-04-25T15:42:08.760Z,101627.02
2023-04-25T15:44:36.816Z,101625.39
2023-04-25T15:47:04.888Z,101626.80
2023-04-25T15:49:32.855Z,101631.91
2023-04-25T15:52:00.794Z,101633.54
2023-04-25T15:54:28.895Z,101632.80
2023-04-25T15:56:56.969Z,101630.46
2023-04-25T15:59:25.041Z,101622.77
2023-04-25T16:01:53.534Z,101619.04
2023-04-25T16:04:21.946Z,101616.69
2023-04-25T16:06:50.079Z,101617.77
2023-04-25T16:09:18.251Z,101621.50
2023-04-25T16:11:46.732Z,101618.83
2023-04-25T16:14:14.928Z,101614.52
2023-04-25T16:16:44.827Z,101613.24
2023-04-25T16:19:12.796Z,101610.94
2023-04-25T16:21:41.706Z,101612.87
2023-04-25T16:24:10.452Z,101604.15
2023-04-25T16:26:38.644Z,101600.23
2023-04-25T16:29:07.532Z,101600.25
2023-04-25T16:31:38.928Z,101599.34
2023-04-25T16:34:06.910Z,101600.22
2023-04-25T16:36:34.819Z,101597.73
2023-04-25T16:39:03.092Z,101589.73
2023-04-25T16:41:31.475Z,101590.77
2023-04-25T16:43:59.544Z,101595.20
2023-04-25T16:46:27.925Z,101594.64
2023-04-25T16:48:56.404Z,101600.30
2023-04-25T16:51:24.418Z,101600.09
2023-04-25T16:53:53.159Z,101592.76
2023-04-25T16:56:21.221Z,101588.77
2023-04-25T16:58:49.748Z,101581.65
2023-04-25T17:01:21.182Z,101586.07
2023-04-25T17:03:49.838Z,101589.77
2023-04-25T17:06:18.317Z,101581.75
2023-04-25T17:08:46.297Z,101582.61
2023-04-25T17:11:14.367Z,101582.59
2023-04-25T17:13:44.185Z,101579.02
2023-04-25T17:16:16.599Z,101579.20
2023-04-25T17:18:44.613Z,101574.19
2023-04-25T17:21:12.577Z,101579.50
2023-04-25T17:23:45.677Z,101579.81
2023-04-25T17:26:14.836Z,101579.78
2023-04-25T17:28:45.348Z,101578.45
2023-04-25T17:31:13.534Z,101576.96
2023-04-25T17:33:41.767Z,101568.34
2023-04-25T17:36:09.758Z,101572.30
2023-04-25T17:38:39.183Z,101575.02
2023-04-25T17:41:08.239Z,101576.14
2023-04-25T17:43:36.825Z,101568.92
2023-04-25T17:46:04.815Z,101573.73
2023-04-25T17:48:32.840Z,101576.35
2023-04-25T17:51:01.600Z,101584.14
2023-04-25T17:53:29.754Z,101590.48
2023-04-25T17:55:57.930Z,101592.95
2023-04-25T17:58:26.016Z,101586.19
2023-04-25T18:00:54.043Z,101585.67
2023-04-25T18:03:22.217Z,101586.05
2023-04-25T18:05:50.410Z,101588.05
2023-04-25T18:08:18.764Z,101580.09
2023-04-25T18:10:46.828Z,101582.23
2023-04-25T18:13:15.108Z,101580.69
2023-04-25T18:15:43.401Z,101576.25
2023-04-25T18:18:19.893Z,101571.12
2023-04-25T18:20:48.528Z,101578.23
2023-04-25T18:23:16.611Z,101577.88
2023-04-25T18:25:46.946Z,101584.63
2023-04-25T18:28:14.958Z,101589.75
2023-04-25T18:30:44.499Z,101595.20
2023-04-25T18:33:12.506Z,101593.77
2023-04-25T18:35:48.292Z,101595.77
2023-04-25T18:41:10.663Z,101593.64
2023-04-25T18:43:46.258Z,101598.45
2023-04-25T18:46:14.213Z,101599.92
2023-04-25T18:48:43.092Z,101598.05
2023-04-25T18:51:11.384Z,101605.34
2023-04-25T18:53:39.364Z,101605.92
2023-04-25T18:56:07.725Z,101603.50
2023-04-25T18:58:36.003Z,101602.17
2023-04-25T19:01:04.925Z,101607.20
2023-04-25T19:03:33.570Z,101605.05
2023-04-25T19:06:02.106Z,101603.66
2023-04-25T19:08:30.138Z,101603.88
2023-04-25T19:11:01.034Z,101607.93
2023-04-25T19:13:31.750Z,101608.77
2023-04-25T19:15:59.777Z,101610.47
2023-04-25T19:18:28.041Z,101612.66
2023-04-25T19:20:55.977Z,101612.01
2023-04-25T19:23:26.344Z,101615.08
2023-04-25T19:25:54.322Z,101620.73
2023-04-25T19:28:23.124Z,101625.53
2023-04-25T19:30:52.453Z,101627.14
2023-04-25T19:33:20.792Z,101632.80
2023-04-25T19:35:48.716Z,101633.52
2023-04-25T19:38:17.140Z,101639.56
2023-04-25T19:40:46.118Z,101647.71
2023-04-25T19:43:14.604Z,101648.27
2023-04-25T19:45:42.677Z,101646.02
2023-04-25T19:48:11.973Z,101645.23
2023-04-25T19:50:40.961Z,101643.00
2023-04-25T19:53:09.525Z,101642.73
2023-04-25T19:55:37.581Z,101649.15
2023-04-25T19:58:06.948Z,101650.89
2023-04-25T20:00:35.410Z,101649.76
2023-04-25T20:03:04.510Z,101650.17
2023-04-25T20:05:32.664Z,101651.83
2023-04-25T20:08:00.662Z,101646.21
2023-04-25T20:10:28.920Z,101649.45
2023-04-25T20:12:56.924Z,101648.65
2023-04-25T20:15:25.059Z,101647.30
2023-04-25T20:17:53.394Z,101644.53
2023-04-25T20:20:22.430Z,101642.48
2023-04-25T20:22:51.125Z,101639.52
2023-04-25T20:25:19.400Z,101640.23
2023-04-25T20:27:47.684Z,101635.00
2023-04-25T20:30:16.560Z,101639.56
2023-04-25T20:32:44.648Z,101635.24
2023-04-25T20:35:13.828Z,101633.83
2023-04-25T20:37:42.422Z,101625.33
2023-04-25T20:40:10.900Z,101627.00
2023-04-25T20:42:38.925Z,101625.64
2023-04-25T20:45:12.588Z,101629.60
2023-04-25T20:47:41.185Z,101631.41
2023-04-25T20:50:11.081Z,101630.75
2023-04-25T20:52:39.038Z,101639.14
2023-04-25T20:55:07.517Z,101636.00
2023-04-25T20:57:35.999Z,101633.36
2023-04-25T21:00:14.039Z,101636.27
2023-04-25T21:02:42.916Z,101634.10
2023-04-25T21:05:11.280Z,101631.89
2023-04-25T21:07:39.552Z,101636.48
2023-04-25T21:10:08.042Z,101639.66
2023-04-25T21:12:36.390Z,101634.30
2023-04-25T21:15:04.998Z,101634.75
2023-04-25T21:17:33.113Z,101633.92
2023-04-25T21:20:01.173Z,101633.80
2023-04-25T21:22:29.146Z,101637.59
2023-04-25T21:24:57.301Z,101636.94
2023-04-25T21:27:25.460Z,101638.55
2023-04-25T21:29:53.480Z,101634.40
2023-04-25T21:32:21.938Z,101631.89
2023-04-25T21:34:50.079Z,101628.52
2023-04-25T21:37:18.259Z,101629.49
2023-04-25T21:39:48.087Z,101633.58
2023-04-25T21:42:16.038Z,101634.80
2023-04-25T21:44:44.014Z,101630.32
2023-04-25T21:47:12.099Z,101632.52
2023-04-25T21:49:40.115Z,101632.58
2023-04-25T21:52:08.085Z,101640.06
2023-04-25T21:54:36.696Z,101640.80
2023-04-25T21:57:04.852Z,101649.45
2023-04-25T21:59:33.107Z,101651.17
2023-04-25T22:02:01.205Z,101651.54
2023-04-25T22:04:29.485Z,101651.84
2023-04-25T22:06:57.878Z,101651.90
2023-04-25T22:09:25.812Z,101647.67
2023-04-25T22:11:54.319Z,101649.36
2023-04-25T22:14:22.672Z,101651.01
2023-04-25T22:16:51.108Z,101650.52
2023-04-25T22:19:18.972Z,101650.41
2023-04-25T22:21:47.226Z,101643.03
2023-04-25T22:24:15.915Z,101637.19
2023-04-25T22:26:43.985Z,101638.20
2023-04-25T22:29:12.878Z,101634.23
2023-04-25T22:31:41.127Z,101631.19
2023-04-25T22:34:09.076Z,101631.27
2023-04-25T22:36:37.106Z,101634.45
2023-04-25T22:39:05.085Z,101636.16
2023-04-25T22:41:33.445Z,101636.83
2023-04-25T22:44:01.427Z,101638.41
2023-04-25T22:46:30.078Z,101634.79
2023-04-25T22:48:58.369Z,101627.29
2023-04-25T22:51:26.371Z,101625.55
2023-04-25T22:53:54.410Z,101621.33
2023-04-25T22:56:22.677Z,101611.73
2023-04-25T22:58:51.727Z,101614.15
2023-04-25T23:01:19.890Z,101616.58
2023-04-25T23:03:48.648Z,101617.54
2023-04-25T23:06:17.167Z,101620.36
2023-04-25T23:08:46.019Z,101622.63
2023-04-25T23:11:14.177Z,101621.39
2023-04-25T23:13:42.258Z,101614.12
2023-04-25T23:16:11.135Z,101614.23
2023-04-25T23:18:41.175Z,101615.61
2023-04-25T23:21:09.489Z,101604.92
2023-04-25T23:23:38.343Z,101599.44
2023-04-25T23:26:10.616Z,101596.64
2023-04-25T23:28:41.732Z,101596.80
2023-04-25T23:31:10.922Z,101597.94
2023-04-25T23:33:39.636Z,101596.15
2023-04-25T23:36:07.750Z,101590.13
2023-04-25T23:38:36.003Z,101584.46
2023-04-25T23:41:04.025Z,101588.32
2023-04-25T23:43:32.225Z,101583.38
2023-04-25T23:46:00.210Z,101581.04
2023-04-25T23:48:28.371Z,101573.72
2023-04-25T23:50:57.155Z,101573.69
2023-04-25T23:53:25.123Z,101572.14
2023-04-25T23:55:53.260Z,101572.45
2023-04-25T23:58:21.489Z,101574.31
